Reggio, Louisiana
Current Conditions -  °F | °C
As of 4:55 AM on Monday 20 Oct 2014 (Local Time) from KNBG Reporting Station
Clear Clear  
Wind Chill: 55°   Ceiling: Unl
Heat Index: 55°   Visibility: NA
Dew Point: 52°   Wind: 0mph
Humidity: 89%   Direction: NA
Pressure: 30.02"   Gusts: NA
Location:  29.8369°N, 89.7702°W
Report Text: KNBG 200955Z AUTO 00000KT CLR 13/11 A3002 RMK AO2 SLP163 T01280111 TSNO $
Loading
Personal Weather Stations






























Interactive Weather Map
Tropical Storm Tracking
New forecast layout! Learn more

10-Day Weather Forecast

Advertisements
Track Severe Weather on mobile